sensor_id;sensor_type;location;lat;lon;timestamp;P1;durP1;ratioP1;P2;durP2;ratioP2
12968;SDS011;6549;53.128;8.182;2023-10-09T00:01:07;5.13;;;2.08;;
12968;SDS011;6549;53.128;8.182;2023-10-09T00:04:13;8.57;;;2.38;;
12968;SDS011;6549;53.128;8.182;2023-10-09T00:07:15;5.57;;;2.10;;
12968;SDS011;6549;53.128;8.182;2023-10-09T00:10:17;4.38;;;2.08;;
12968;SDS011;6549;53.128;8.182;2023-10-09T00:13:17;3.90;;;2.20;;
12968;SDS011;6549;53.128;8.182;2023-10-09T00:16:19;4.22;;;2.28;;
12968;SDS011;6549;53.128;8.182;2023-10-09T00:19:32;3.47;;;2.17;;
12968;SDS011;6549;53.128;8.182;2023-10-09T00:22:33;6.45;;;2.30;;
12968;SDS011;6549;53.128;8.182;2023-10-09T00:25:38;4.95;;;2.40;;
12968;SDS011;6549;53.128;8.182;2023-10-09T00:28:44;3.85;;;2.03;;
12968;SDS011;6549;53.128;8.182;2023-10-09T00:31:56;4.00;;;1.80;;
12968;SDS011;6549;53.128;8.182;2023-10-09T00:35:16;3.47;;;1.77;;
12968;SDS011;6549;53.128;8.182;2023-10-09T00:38:48;4.88;;;2.40;;
12968;SDS011;6549;53.128;8.182;2023-10-09T00:41:52;3.13;;;1.90;;
12968;SDS011;6549;53.128;8.182;2023-10-09T00:44:54;3.33;;;2.10;;
12968;SDS011;6549;53.128;8.182;2023-10-09T00:47:54;5.28;;;2.10;;
12968;SDS011;6549;53.128;8.182;2023-10-09T00:50:59;4.93;;;2.17;;
12968;SDS011;6549;53.128;8.182;2023-10-09T00:54:01;3.35;;;1.80;;
12968;SDS011;6549;53.128;8.182;2023-10-09T00:57:13;4.57;;;2.30;;
12968;SDS011;6549;53.128;8.182;2023-10-09T01:00:16;4.32;;;2.00;;
12968;SDS011;6549;53.128;8.182;2023-10-09T01:03:32;3.20;;;1.92;;
12968;SDS011;6549;53.128;8.182;2023-10-09T01:06:33;4.35;;;2.42;;
12968;SDS011;6549;53.128;8.182;2023-10-09T01:09:42;5.30;;;2.17;;
12968;SDS011;6549;53.128;8.182;2023-10-09T01:12:44;2.75;;;1.95;;
12968;SDS011;6549;53.128;8.182;2023-10-09T01:15:46;6.03;;;2.78;;
12968;SDS011;6549;53.128;8.182;2023-10-09T01:18:51;4.40;;;2.30;;
12968;SDS011;6549;53.128;8.182;2023-10-09T01:21:53;3.50;;;2.00;;
12968;SDS011;6549;53.128;8.182;2023-10-09T01:24:54;4.35;;;2.10;;
12968;SDS011;6549;53.128;8.182;2023-10-09T01:27:55;3.63;;;2.03;;
12968;SDS011;6549;53.128;8.182;2023-10-09T01:30:56;4.35;;;2.20;;
12968;SDS011;6549;53.128;8.182;2023-10-09T01:33:57;3.60;;;2.45;;
12968;SDS011;6549;53.128;8.182;2023-10-09T01:36:59;3.58;;;2.40;;
12968;SDS011;6549;53.128;8.182;2023-10-09T01:40:00;3.80;;;2.05;;
12968;SDS011;6549;53.128;8.182;2023-10-09T01:43:19;5.57;;;2.47;;
12968;SDS011;6549;53.128;8.182;2023-10-09T01:46:20;3.28;;;1.90;;
12968;SDS011;6549;53.128;8.182;2023-10-09T01:49:22;5.37;;;2.87;;
12968;SDS011;6549;53.128;8.182;2023-10-09T01:52:29;6.18;;;2.75;;
12968;SDS011;6549;53.128;8.182;2023-10-09T01:55:30;5.70;;;2.47;;
12968;SDS011;6549;53.128;8.182;2023-10-09T01:58:35;3.13;;;2.10;;
12968;SDS011;6549;53.128;8.182;2023-10-09T02:01:37;4.65;;;2.60;;
12968;SDS011;6549;53.128;8.182;2023-10-09T02:04:41;2.58;;;1.85;;
12968;SDS011;6549;53.128;8.182;2023-10-09T02:07:42;3.65;;;2.35;;
12968;SDS011;6549;53.128;8.182;2023-10-09T02:10:51;2.33;;;1.83;;
12968;SDS011;6549;53.128;8.182;2023-10-09T02:13:55;3.95;;;2.30;;
12968;SDS011;6549;53.128;8.182;2023-10-09T02:17:01;4.40;;;2.42;;
12968;SDS011;6549;53.128;8.182;2023-10-09T02:20:18;4.13;;;2.42;;
12968;SDS011;6549;53.128;8.182;2023-10-09T02:23:29;4.43;;;2.45;;
12968;SDS011;6549;53.128;8.182;2023-10-09T02:26:39;2.85;;;1.90;;
12968;SDS011;6549;53.128;8.182;2023-10-09T02:29:39;4.60;;;2.20;;
12968;SDS011;6549;53.128;8.182;2023-10-09T02:32:42;3.53;;;2.40;;
12968;SDS011;6549;53.128;8.182;2023-10-09T02:35:43;4.75;;;2.60;;
12968;SDS011;6549;53.128;8.182;2023-10-09T02:38:44;4.57;;;2.70;;
12968;SDS011;6549;53.128;8.182;2023-10-09T02:41:44;5.07;;;2.30;;
12968;SDS011;6549;53.128;8.182;2023-10-09T02:44:50;7.30;;;2.92;;
12968;SDS011;6549;53.128;8.182;2023-10-09T02:47:51;4.33;;;2.50;;
12968;SDS011;6549;53.128;8.182;2023-10-09T02:50:51;4.20;;;2.83;;
12968;SDS011;6549;53.128;8.182;2023-10-09T02:53:55;6.72;;;2.40;;
12968;SDS011;6549;53.128;8.182;2023-10-09T02:56:57;6.32;;;2.95;;
12968;SDS011;6549;53.128;8.182;2023-10-09T03:00:07;5.05;;;2.50;;
12968;SDS011;6549;53.128;8.182;2023-10-09T03:03:19;3.27;;;2.30;;
12968;SDS011;6549;53.128;8.182;2023-10-09T03:06:21;3.78;;;2.40;;
12968;SDS011;6549;53.128;8.182;2023-10-09T03:09:28;3.15;;;2.30;;
12968;SDS011;6549;53.128;8.182;2023-10-09T03:12:28;5.63;;;2.72;;
12968;SDS011;6549;53.128;8.182;2023-10-09T03:15:31;4.55;;;2.70;;
12968;SDS011;6549;53.128;8.182;2023-10-09T03:18:35;4.57;;;2.78;;
12968;SDS011;6549;53.128;8.182;2023-10-09T03:21:37;5.10;;;2.85;;
12968;SDS011;6549;53.128;8.182;2023-10-09T03:24:38;4.05;;;2.70;;
12968;SDS011;6549;53.128;8.182;2023-10-09T03:27:41;6.03;;;3.20;;
12968;SDS011;6549;53.128;8.182;2023-10-09T03:30:45;4.78;;;2.78;;
12968;SDS011;6549;53.128;8.182;2023-10-09T03:33:47;6.32;;;3.70;;
12968;SDS011;6549;53.128;8.182;2023-10-09T03:36:47;5.50;;;3.08;;
12968;SDS011;6549;53.128;8.182;2023-10-09T03:39:48;4.82;;;3.03;;
12968;SDS011;6549;53.128;8.182;2023-10-09T03:42:51;6.38;;;3.80;;
12968;SDS011;6549;53.128;8.182;2023-10-09T03:45:52;5.30;;;3.30;;
12968;SDS011;6549;53.128;8.182;2023-10-09T03:48:53;6.13;;;3.70;;
12968;SDS011;6549;53.128;8.182;2023-10-09T03:51:57;5.57;;;3.53;;
12968;SDS011;6549;53.128;8.182;2023-10-09T03:54:59;5.70;;;3.13;;
12968;SDS011;6549;53.128;8.182;2023-10-09T03:58:01;6.03;;;3.78;;
12968;SDS011;6549;53.128;8.182;2023-10-09T04:01:06;6.88;;;3.80;;
12968;SDS011;6549;53.128;8.182;2023-10-09T04:04:07;6.45;;;4.00;;
12968;SDS011;6549;53.128;8.182;2023-10-09T04:07:10;6.00;;;3.30;;
12968;SDS011;6549;53.128;8.182;2023-10-09T04:10:11;6.05;;;3.67;;
12968;SDS011;6549;53.128;8.182;2023-10-09T04:13:33;6.03;;;3.75;;
12968;SDS011;6549;53.128;8.182;2023-10-09T04:16:33;6.20;;;3.95;;
12968;SDS011;6549;53.128;8.182;2023-10-09T04:19:34;6.20;;;3.70;;
12968;SDS011;6549;53.128;8.182;2023-10-09T04:22:48;7.78;;;4.30;;
12968;SDS011;6549;53.128;8.182;2023-10-09T04:25:51;7.78;;;4.50;;
12968;SDS011;6549;53.128;8.182;2023-10-09T04:28:51;6.05;;;3.88;;
12968;SDS011;6549;53.128;8.182;2023-10-09T04:31:55;7.93;;;4.47;;
12968;SDS011;6549;53.128;8.182;2023-10-09T04:34:56;7.57;;;4.57;;
12968;SDS011;6549;53.128;8.182;2023-10-09T04:38:16;7.35;;;4.13;;
12968;SDS011;6549;53.128;8.182;2023-10-09T04:41:17;8.50;;;4.78;;
12968;SDS011;6549;53.128;8.182;2023-10-09T04:44:27;9.35;;;5.47;;
12968;SDS011;6549;53.128;8.182;2023-10-09T04:47:36;9.55;;;5.20;;
12968;SDS011;6549;53.128;8.182;2023-10-09T04:50:36;7.53;;;4.53;;
12968;SDS011;6549;53.128;8.182;2023-10-09T04:53:57;10.75;;;6.03;;
12968;SDS011;6549;53.128;8.182;2023-10-09T04:57:12;11.30;;;5.45;;
12968;SDS011;6549;53.128;8.182;2023-10-09T05:00:18;8.63;;;5.07;;
12968;SDS011;6549;53.128;8.182;2023-10-09T05:03:27;9.43;;;6.00;;
12968;SDS011;6549;53.128;8.182;2023-10-09T05:06:29;10.32;;;5.88;;
12968;SDS011;6549;53.128;8.182;2023-10-09T05:09:55;10.45;;;5.82;;
12968;SDS011;6549;53.128;8.182;2023-10-09T05:12:55;10.93;;;6.07;;
12968;SDS011;6549;53.128;8.182;2023-10-09T05:15:58;11.55;;;5.57;;
12968;SDS011;6549;53.128;8.182;2023-10-09T05:18:59;10.88;;;5.95;;
12968;SDS011;6549;53.128;8.182;2023-10-09T05:22:03;14.68;;;7.85;;
12968;SDS011;6549;53.128;8.182;2023-10-09T05:25:09;16.13;;;8.10;;
12968;SDS011;6549;53.128;8.182;2023-10-09T05:28:15;12.55;;;7.90;;
12968;SDS011;6549;53.128;8.182;2023-10-09T05:31:25;13.98;;;8.02;;
12968;SDS011;6549;53.128;8.182;2023-10-09T05:34:44;17.15;;;8.90;;
12968;SDS011;6549;53.128;8.182;2023-10-09T05:38:00;20.50;;;11.02;;
12968;SDS011;6549;53.128;8.182;2023-10-09T05:41:05;21.75;;;11.70;;
12968;SDS011;6549;53.128;8.182;2023-10-09T05:44:25;20.67;;;11.80;;
12968;SDS011;6549;53.128;8.182;2023-10-09T05:47:44;21.23;;;11.95;;
12968;SDS011;6549;53.128;8.182;2023-10-09T05:51:05;22.75;;;12.80;;
12968;SDS011;6549;53.128;8.182;2023-10-09T05:54:34;22.90;;;12.60;;
12968;SDS011;6549;53.128;8.182;2023-10-09T05:57:53;25.50;;;12.77;;
12968;SDS011;6549;53.128;8.182;2023-10-09T06:01:13;20.55;;;12.07;;
12968;SDS011;6549;53.128;8.182;2023-10-09T06:04:39;21.77;;;11.55;;
12968;SDS011;6549;53.128;8.182;2023-10-09T06:07:55;33.13;;;17.88;;
12968;SDS011;6549;53.128;8.182;2023-10-09T06:11:07;25.63;;;14.07;;
12968;SDS011;6549;53.128;8.182;2023-10-09T06:14:27;18.73;;;11.00;;
12968;SDS011;6549;53.128;8.182;2023-10-09T06:17:30;19.05;;;11.13;;
12968;SDS011;6549;53.128;8.182;2023-10-09T06:20:43;23.92;;;12.32;;
12968;SDS011;6549;53.128;8.182;2023-10-09T06:24:02;19.98;;;11.38;;
12968;SDS011;6549;53.128;8.182;2023-10-09T06:27:15;18.88;;;10.73;;
12968;SDS011;6549;53.128;8.182;2023-10-09T06:30:35;19.40;;;10.93;;
12968;SDS011;6549;53.128;8.182;2023-10-09T06:33:36;19.48;;;11.05;;
12968;SDS011;6549;53.128;8.182;2023-10-09T06:36:56;21.35;;;11.90;;
12968;SDS011;6549;53.128;8.182;2023-10-09T06:40:03;22.52;;;13.13;;
12968;SDS011;6549;53.128;8.182;2023-10-09T06:43:29;19.63;;;10.88;;
12968;SDS011;6549;53.128;8.182;2023-10-09T06:46:31;22.52;;;12.52;;
12968;SDS011;6549;53.128;8.182;2023-10-09T06:49:44;19.70;;;11.70;;
12968;SDS011;6549;53.128;8.182;2023-10-09T06:53:04;23.10;;;13.30;;
12968;SDS011;6549;53.128;8.182;2023-10-09T06:56:10;21.60;;;12.68;;
12968;SDS011;6549;53.128;8.182;2023-10-09T06:59:23;29.80;;;16.25;;
12968;SDS011;6549;53.128;8.182;2023-10-09T07:02:24;22.95;;;12.98;;
12968;SDS011;6549;53.128;8.182;2023-10-09T07:05:27;26.02;;;15.50;;
12968;SDS011;6549;53.128;8.182;2023-10-09T07:08:38;28.38;;;15.57;;
12968;SDS011;6549;53.128;8.182;2023-10-09T07:11:39;25.67;;;15.20;;
12968;SDS011;6549;53.128;8.182;2023-10-09T07:14:41;32.80;;;17.02;;
12968;SDS011;6549;53.128;8.182;2023-10-09T07:17:41;36.00;;;20.17;;
12968;SDS011;6549;53.128;8.182;2023-10-09T07:20:41;29.63;;;15.90;;
12968;SDS011;6549;53.128;8.182;2023-10-09T07:23:58;25.88;;;15.45;;
12968;SDS011;6549;53.128;8.182;2023-10-09T07:27:13;29.60;;;16.83;;
12968;SDS011;6549;53.128;8.182;2023-10-09T07:30:15;33.72;;;17.90;;
12968;SDS011;6549;53.128;8.182;2023-10-09T07:33:28;25.88;;;13.73;;
12968;SDS011;6549;53.128;8.182;2023-10-09T07:36:51;40.70;;;21.27;;
12968;SDS011;6549;53.128;8.182;2023-10-09T07:39:56;28.73;;;16.70;;
12968;SDS011;6549;53.128;8.182;2023-10-09T07:42:57;28.58;;;17.05;;
12968;SDS011;6549;53.128;8.182;2023-10-09T07:46:08;25.38;;;14.23;;
12968;SDS011;6549;53.128;8.182;2023-10-09T07:49:28;26.05;;;15.93;;
12968;SDS011;6549;53.128;8.182;2023-10-09T07:52:31;26.58;;;14.85;;
12968;SDS011;6549;53.128;8.182;2023-10-09T07:55:31;42.03;;;22.42;;
12968;SDS011;6549;53.128;8.182;2023-10-09T07:58:39;34.60;;;18.45;;
12968;SDS011;6549;53.128;8.182;2023-10-09T08:01:47;32.28;;;17.48;;
12968;SDS011;6549;53.128;8.182;2023-10-09T08:04:59;31.90;;;17.05;;
12968;SDS011;6549;53.128;8.182;2023-10-09T08:08:05;34.17;;;17.77;;
12968;SDS011;6549;53.128;8.182;2023-10-09T08:11:37;29.80;;;17.23;;
12968;SDS011;6549;53.128;8.182;2023-10-09T08:14:41;23.80;;;13.80;;
12968;SDS011;6549;53.128;8.182;2023-10-09T08:17:44;39.28;;;19.83;;
12968;SDS011;6549;53.128;8.182;2023-10-09T08:20:53;33.95;;;18.35;;
12968;SDS011;6549;53.128;8.182;2023-10-09T08:23:57;31.60;;;16.60;;
12968;SDS011;6549;53.128;8.182;2023-10-09T08:27:04;28.83;;;15.57;;
12968;SDS011;6549;53.128;8.182;2023-10-09T08:30:24;26.98;;;15.23;;
12968;SDS011;6549;53.128;8.182;2023-10-09T08:33:25;29.10;;;17.33;;
12968;SDS011;6549;53.128;8.182;2023-10-09T08:36:25;32.70;;;18.10;;
12968;SDS011;6549;53.128;8.182;2023-10-09T08:39:36;30.52;;;16.25;;
12968;SDS011;6549;53.128;8.182;2023-10-09T08:42:36;31.55;;;17.80;;
12968;SDS011;6549;53.128;8.182;2023-10-09T08:45:37;23.35;;;12.43;;
12968;SDS011;6549;53.128;8.182;2023-10-09T08:48:41;23.77;;;12.82;;
12968;SDS011;6549;53.128;8.182;2023-10-09T08:51:42;22.25;;;12.88;;
12968;SDS011;6549;53.128;8.182;2023-10-09T08:54:43;24.77;;;13.55;;
12968;SDS011;6549;53.128;8.182;2023-10-09T08:57:46;19.55;;;11.80;;
12968;SDS011;6549;53.128;8.182;2023-10-09T09:00:48;32.75;;;16.88;;
12968;SDS011;6549;53.128;8.182;2023-10-09T09:03:48;23.10;;;13.25;;
12968;SDS011;6549;53.128;8.182;2023-10-09T09:06:50;18.38;;;10.98;;
12968;SDS011;6549;53.128;8.182;2023-10-09T09:09:57;23.33;;;13.35;;
12968;SDS011;6549;53.128;8.182;2023-10-09T09:13:03;28.77;;;15.63;;
12968;SDS011;6549;53.128;8.182;2023-10-09T09:16:04;22.80;;;13.55;;
12968;SDS011;6549;53.128;8.182;2023-10-09T09:19:04;27.85;;;15.05;;
12968;SDS011;6549;53.128;8.182;2023-10-09T09:22:08;29.25;;;16.27;;
12968;SDS011;6549;53.128;8.182;2023-10-09T09:25:13;20.10;;;12.30;;
12968;SDS011;6549;53.128;8.182;2023-10-09T09:28:14;32.55;;;17.00;;
12968;SDS011;6549;53.128;8.182;2023-10-09T09:31:21;24.65;;;13.52;;
12968;SDS011;6549;53.128;8.182;2023-10-09T09:34:22;28.77;;;16.17;;
12968;SDS011;6549;53.128;8.182;2023-10-09T09:37:29;28.23;;;14.70;;
12968;SDS011;6549;53.128;8.182;2023-10-09T09:40:50;19.85;;;11.70;;
12968;SDS011;6549;53.128;8.182;2023-10-09T09:43:57;20.65;;;12.27;;
12968;SDS011;6549;53.128;8.182;2023-10-09T09:47:00;22.20;;;13.73;;
12968;SDS011;6549;53.128;8.182;2023-10-09T09:50:01;16.55;;;10.30;;
12968;SDS011;6549;53.128;8.182;2023-10-09T09:53:13;23.20;;;12.82;;
12968;SDS011;6549;53.128;8.182;2023-10-09T09:56:17;18.85;;;11.52;;
12968;SDS011;6549;53.128;8.182;2023-10-09T09:59:23;19.67;;;11.90;;
12968;SDS011;6549;53.128;8.182;2023-10-09T10:02:30;18.50;;;10.27;;
12968;SDS011;6549;53.128;8.182;2023-10-09T10:05:35;20.13;;;10.73;;
12968;SDS011;6549;53.128;8.182;2023-10-09T10:08:37;25.27;;;11.77;;
12968;SDS011;6549;53.128;8.182;2023-10-09T10:11:43;22.13;;;11.97;;
12968;SDS011;6549;53.128;8.182;2023-10-09T10:27:30;18.75;;;10.65;;
12968;SDS011;6549;53.128;8.182;2023-10-09T10:30:30;16.73;;;9.97;;
12968;SDS011;6549;53.128;8.182;2023-10-09T10:34:03;18.25;;;9.20;;
12968;SDS011;6549;53.128;8.182;2023-10-09T10:36:56;19.30;;;9.35;;
12968;SDS011;6549;53.128;8.182;2023-10-09T10:39:59;14.60;;;8.95;;
12968;SDS011;6549;53.128;8.182;2023-10-09T10:43:00;12.75;;;8.63;;
12968;SDS011;6549;53.128;8.182;2023-10-09T10:46:09;16.67;;;9.90;;
12968;SDS011;6549;53.128;8.182;2023-10-09T10:49:15;15.57;;;8.43;;
12968;SDS011;6549;53.128;8.182;2023-10-09T10:52:21;11.30;;;7.25;;
12968;SDS011;6549;53.128;8.182;2023-10-09T10:55:54;16.67;;;9.68;;
12968;SDS011;6549;53.128;8.182;2023-10-09T10:59:18;17.80;;;9.50;;
12968;SDS011;6549;53.128;8.182;2023-10-09T11:02:25;14.35;;;8.40;;
12968;SDS011;6549;53.128;8.182;2023-10-09T11:05:28;15.77;;;8.77;;
12968;SDS011;6549;53.128;8.182;2023-10-09T11:08:32;11.65;;;6.78;;
12968;SDS011;6549;53.128;8.182;2023-10-09T11:11:33;8.57;;;5.60;;
12968;SDS011;6549;53.128;8.182;2023-10-09T11:14:47;8.90;;;5.47;;
12968;SDS011;6549;53.128;8.182;2023-10-09T11:18:06;9.20;;;6.32;;
12968;SDS011;6549;53.128;8.182;2023-10-09T11:21:19;10.32;;;6.50;;
12968;SDS011;6549;53.128;8.182;2023-10-09T11:24:20;9.63;;;6.22;;
12968;SDS011;6549;53.128;8.182;2023-10-09T11:27:26;13.30;;;7.55;;
12968;SDS011;6549;53.128;8.182;2023-10-09T11:30:32;10.52;;;6.13;;
12968;SDS011;6549;53.128;8.182;2023-10-09T11:33:43;9.18;;;5.38;;
12968;SDS011;6549;53.128;8.182;2023-10-09T11:36:48;8.57;;;5.15;;
12968;SDS011;6549;53.128;8.182;2023-10-09T11:39:59;7.38;;;4.85;;
12968;SDS011;6549;53.128;8.182;2023-10-09T11:43:00;7.32;;;4.13;;
12968;SDS011;6549;53.128;8.182;2023-10-09T11:46:09;6.20;;;3.83;;
12968;SDS011;6549;53.128;8.182;2023-10-09T11:49:32;7.38;;;4.15;;
12968;SDS011;6549;53.128;8.182;2023-10-09T11:52:57;7.22;;;4.40;;
12968;SDS011;6549;53.128;8.182;2023-10-09T11:56:09;6.93;;;3.40;;
12968;SDS011;6549;53.128;8.182;2023-10-09T11:59:14;5.70;;;2.83;;
12968;SDS011;6549;53.128;8.182;2023-10-09T12:02:17;4.85;;;2.95;;
12968;SDS011;6549;53.128;8.182;2023-10-09T12:05:17;4.72;;;2.90;;
12968;SDS011;6549;53.128;8.182;2023-10-09T12:08:17;9.40;;;3.90;;
12968;SDS011;6549;53.128;8.182;2023-10-09T12:11:22;5.40;;;3.40;;
12968;SDS011;6549;53.128;8.182;2023-10-09T12:14:22;5.20;;;2.85;;
12968;SDS011;6549;53.128;8.182;2023-10-09T12:17:24;5.68;;;3.70;;
12968;SDS011;6549;53.128;8.182;2023-10-09T12:20:25;4.63;;;3.30;;
12968;SDS011;6549;53.128;8.182;2023-10-09T12:23:32;5.80;;;3.28;;
12968;SDS011;6549;53.128;8.182;2023-10-09T12:26:35;5.50;;;3.15;;
12968;SDS011;6549;53.128;8.182;2023-10-09T12:29:38;8.75;;;4.10;;
12968;SDS011;6549;53.128;8.182;2023-10-09T12:32:44;7.55;;;3.30;;
12968;SDS011;6549;53.128;8.182;2023-10-09T12:35:44;6.78;;;3.05;;
12968;SDS011;6549;53.128;8.182;2023-10-09T12:38:48;6.72;;;2.97;;
12968;SDS011;6549;53.128;8.182;2023-10-09T12:41:59;7.47;;;3.15;;
12968;SDS011;6549;53.128;8.182;2023-10-09T12:45:06;6.60;;;3.25;;
12968;SDS011;6549;53.128;8.182;2023-10-09T12:48:10;8.10;;;3.10;;
12968;SDS011;6549;53.128;8.182;2023-10-09T12:51:10;6.70;;;3.05;;
12968;SDS011;6549;53.128;8.182;2023-10-09T12:54:16;6.63;;;3.30;;
12968;SDS011;6549;53.128;8.182;2023-10-09T12:57:16;5.75;;;3.08;;
12968;SDS011;6549;53.128;8.182;2023-10-09T13:00:16;6.78;;;3.00;;
12968;SDS011;6549;53.128;8.182;2023-10-09T13:03:25;5.60;;;2.75;;
12968;SDS011;6549;53.128;8.182;2023-10-09T13:06:28;8.32;;;3.45;;
12968;SDS011;6549;53.128;8.182;2023-10-09T13:09:29;7.38;;;3.53;;
12968;SDS011;6549;53.128;8.182;2023-10-09T13:12:36;6.45;;;3.10;;
12968;SDS011;6549;53.128;8.182;2023-10-09T13:15:41;11.52;;;3.33;;
12968;SDS011;6549;53.128;8.182;2023-10-09T13:18:42;6.28;;;3.40;;
12968;SDS011;6549;53.128;8.182;2023-10-09T13:21:49;7.32;;;3.40;;
12968;SDS011;6549;53.128;8.182;2023-10-09T13:24:50;6.90;;;3.10;;
12968;SDS011;6549;53.128;8.182;2023-10-09T13:27:52;6.32;;;3.17;;
12968;SDS011;6549;53.128;8.182;2023-10-09T13:30:53;6.38;;;3.47;;
12968;SDS011;6549;53.128;8.182;2023-10-09T13:33:53;5.93;;;3.13;;
12968;SDS011;6549;53.128;8.182;2023-10-09T13:36:55;5.70;;;3.10;;
12968;SDS011;6549;53.128;8.182;2023-10-09T13:39:58;7.15;;;3.28;;
12968;SDS011;6549;53.128;8.182;2023-10-09T13:42:59;7.38;;;3.30;;
12968;SDS011;6549;53.128;8.182;2023-10-09T13:45:59;6.32;;;3.20;;
12968;SDS011;6549;53.128;8.182;2023-10-09T13:49:03;6.45;;;3.17;;
12968;SDS011;6549;53.128;8.182;2023-10-09T13:52:09;5.65;;;3.10;;
12968;SDS011;6549;53.128;8.182;2023-10-09T13:55:09;6.80;;;3.10;;
12968;SDS011;6549;53.128;8.182;2023-10-09T13:58:15;9.32;;;3.38;;
12968;SDS011;6549;53.128;8.182;2023-10-09T14:01:21;8.07;;;3.72;;
12968;SDS011;6549;53.128;8.182;2023-10-09T14:04:27;6.68;;;3.45;;
12968;SDS011;6549;53.128;8.182;2023-10-09T14:07:27;8.30;;;3.90;;
12968;SDS011;6549;53.128;8.182;2023-10-09T14:10:27;10.15;;;3.90;;
12968;SDS011;6549;53.128;8.182;2023-10-09T14:13:30;9.25;;;3.88;;
12968;SDS011;6549;53.128;8.182;2023-10-09T14:16:30;10.00;;;3.55;;
12968;SDS011;6549;53.128;8.182;2023-10-09T14:19:33;5.60;;;3.10;;
12968;SDS011;6549;53.128;8.182;2023-10-09T14:22:33;8.93;;;3.60;;
12968;SDS011;6549;53.128;8.182;2023-10-09T14:25:38;12.38;;;3.80;;
12968;SDS011;6549;53.128;8.182;2023-10-09T14:28:39;8.48;;;3.00;;
12968;SDS011;6549;53.128;8.182;2023-10-09T14:31:43;7.82;;;2.85;;
12968;SDS011;6549;53.128;8.182;2023-10-09T14:34:49;7.05;;;2.78;;
12968;SDS011;6549;53.128;8.182;2023-10-09T14:37:54;7.63;;;2.65;;
12968;SDS011;6549;53.128;8.182;2023-10-09T14:40:55;10.10;;;3.08;;
12968;SDS011;6549;53.128;8.182;2023-10-09T14:43:59;13.32;;;3.63;;
12968;SDS011;6549;53.128;8.182;2023-10-09T14:47:00;8.68;;;2.90;;
12968;SDS011;6549;53.128;8.182;2023-10-09T14:50:02;9.13;;;3.15;;
12968;SDS011;6549;53.128;8.182;2023-10-09T14:53:08;8.75;;;3.40;;
12968;SDS011;6549;53.128;8.182;2023-10-09T14:56:09;10.57;;;3.55;;
12968;SDS011;6549;53.128;8.182;2023-10-09T14:59:09;5.93;;;2.40;;
12968;SDS011;6549;53.128;8.182;2023-10-09T15:02:11;7.23;;;2.67;;
12968;SDS011;6549;53.128;8.182;2023-10-09T15:05:12;6.03;;;2.60;;
12968;SDS011;6549;53.128;8.182;2023-10-09T15:08:13;6.68;;;2.80;;
12968;SDS011;6549;53.128;8.182;2023-10-09T15:11:13;8.02;;;3.08;;
12968;SDS011;6549;53.128;8.182;2023-10-09T15:14:15;10.00;;;3.15;;
12968;SDS011;6549;53.128;8.182;2023-10-09T15:17:15;6.28;;;2.40;;
12968;SDS011;6549;53.128;8.182;2023-10-09T15:20:16;7.60;;;2.45;;
12968;SDS011;6549;53.128;8.182;2023-10-09T15:23:16;6.25;;;2.63;;
12968;SDS011;6549;53.128;8.182;2023-10-09T15:26:19;6.85;;;2.85;;
12968;SDS011;6549;53.128;8.182;2023-10-09T15:29:21;6.60;;;2.75;;
12968;SDS011;6549;53.128;8.182;2023-10-09T15:32:28;11.95;;;3.20;;
12968;SDS011;6549;53.128;8.182;2023-10-09T15:35:28;8.23;;;2.88;;
12968;SDS011;6549;53.128;8.182;2023-10-09T15:38:29;6.07;;;2.42;;
12968;SDS011;6549;53.128;8.182;2023-10-09T15:41:29;8.02;;;2.88;;
12968;SDS011;6549;53.128;8.182;2023-10-09T15:44:30;5.82;;;2.30;;
12968;SDS011;6549;53.128;8.182;2023-10-09T15:47:33;6.05;;;2.30;;
12968;SDS011;6549;53.128;8.182;2023-10-09T15:50:36;6.65;;;2.53;;
12968;SDS011;6549;53.128;8.182;2023-10-09T15:53:36;5.65;;;2.28;;
12968;SDS011;6549;53.128;8.182;2023-10-09T15:56:38;6.55;;;2.15;;
12968;SDS011;6549;53.128;8.182;2023-10-09T15:59:41;5.57;;;2.13;;
12968;SDS011;6549;53.128;8.182;2023-10-09T16:02:42;6.93;;;2.30;;
12968;SDS011;6549;53.128;8.182;2023-10-09T16:05:43;7.82;;;2.40;;
12968;SDS011;6549;53.128;8.182;2023-10-09T16:08:44;7.32;;;2.15;;
12968;SDS011;6549;53.128;8.182;2023-10-09T16:11:45;6.93;;;2.20;;
12968;SDS011;6549;53.128;8.182;2023-10-09T16:14:45;5.32;;;2.35;;
12968;SDS011;6549;53.128;8.182;2023-10-09T16:17:46;5.38;;;1.83;;
12968;SDS011;6549;53.128;8.182;2023-10-09T16:20:47;3.90;;;1.73;;
12968;SDS011;6549;53.128;8.182;2023-10-09T16:23:49;4.18;;;1.90;;
12968;SDS011;6549;53.128;8.182;2023-10-09T16:26:49;6.88;;;2.05;;
12968;SDS011;6549;53.128;8.182;2023-10-09T16:29:51;7.43;;;2.23;;
12968;SDS011;6549;53.128;8.182;2023-10-09T16:32:52;6.50;;;2.00;;
12968;SDS011;6549;53.128;8.182;2023-10-09T16:35:52;4.05;;;1.50;;
12968;SDS011;6549;53.128;8.182;2023-10-09T16:38:59;3.75;;;1.80;;
12968;SDS011;6549;53.128;8.182;2023-10-09T16:41:59;5.97;;;1.85;;
12968;SDS011;6549;53.128;8.182;2023-10-09T16:45:02;5.05;;;1.83;;
12968;SDS011;6549;53.128;8.182;2023-10-09T16:48:02;4.93;;;2.05;;
12968;SDS011;6549;53.128;8.182;2023-10-09T16:51:06;4.75;;;2.03;;
12968;SDS011;6549;53.128;8.182;2023-10-09T16:54:09;4.93;;;1.90;;
12968;SDS011;6549;53.128;8.182;2023-10-09T16:57:15;3.75;;;1.40;;
12968;SDS011;6549;53.128;8.182;2023-10-09T17:00:17;5.17;;;1.70;;
12968;SDS011;6549;53.128;8.182;2023-10-09T17:03:34;3.83;;;1.50;;
12968;SDS011;6549;53.128;8.182;2023-10-09T17:06:38;7.50;;;2.50;;
12968;SDS011;6549;53.128;8.182;2023-10-09T17:09:39;4.97;;;1.92;;
12968;SDS011;6549;53.128;8.182;2023-10-09T17:15:47;3.70;;;2.30;;
12968;SDS011;6549;53.128;8.182;2023-10-09T17:18:52;4.63;;;2.35;;
12968;SDS011;6549;53.128;8.182;2023-10-09T17:21:53;3.55;;;2.17;;
12968;SDS011;6549;53.128;8.182;2023-10-09T17:24:53;3.05;;;1.85;;
12968;SDS011;6549;53.128;8.182;2023-10-09T17:27:54;3.33;;;1.63;;
12968;SDS011;6549;53.128;8.182;2023-10-09T17:30:59;4.10;;;2.13;;
12968;SDS011;6549;53.128;8.182;2023-10-09T17:34:01;4.38;;;2.00;;
12968;SDS011;6549;53.128;8.182;2023-10-09T17:37:02;4.43;;;2.20;;
12968;SDS011;6549;53.128;8.182;2023-10-09T17:40:04;5.20;;;2.50;;
12968;SDS011;6549;53.128;8.182;2023-10-09T17:43:06;2.88;;;2.10;;
12968;SDS011;6549;53.128;8.182;2023-10-09T17:46:06;3.10;;;1.98;;
12968;SDS011;6549;53.128;8.182;2023-10-09T17:49:07;5.18;;;2.28;;
12968;SDS011;6549;53.128;8.182;2023-10-09T17:52:26;3.08;;;2.10;;
12968;SDS011;6549;53.128;8.182;2023-10-09T17:55:26;3.45;;;2.58;;
12968;SDS011;6549;53.128;8.182;2023-10-09T17:58:27;3.17;;;2.50;;
12968;SDS011;6549;53.128;8.182;2023-10-09T18:01:28;4.57;;;2.67;;
12968;SDS011;6549;53.128;8.182;2023-10-09T18:04:29;3.58;;;2.47;;
12968;SDS011;6549;53.128;8.182;2023-10-09T18:07:35;3.35;;;2.10;;
12968;SDS011;6549;53.128;8.182;2023-10-09T18:10:38;3.38;;;2.08;;
12968;SDS011;6549;53.128;8.182;2023-10-09T18:13:41;3.15;;;2.20;;
12968;SDS011;6549;53.128;8.182;2023-10-09T18:16:41;2.75;;;1.85;;
12968;SDS011;6549;53.128;8.182;2023-10-09T18:19:42;2.35;;;1.73;;
12968;SDS011;6549;53.128;8.182;2023-10-09T18:22:43;3.20;;;1.88;;
12968;SDS011;6549;53.128;8.182;2023-10-09T18:25:46;4.40;;;1.90;;
12968;SDS011;6549;53.128;8.182;2023-10-09T18:28:49;5.28;;;2.88;;
12968;SDS011;6549;53.128;8.182;2023-10-09T18:31:50;2.78;;;1.92;;
12968;SDS011;6549;53.128;8.182;2023-10-09T18:34:50;4.82;;;2.63;;
12968;SDS011;6549;53.128;8.182;2023-10-09T18:37:50;5.25;;;2.20;;
12968;SDS011;6549;53.128;8.182;2023-10-09T18:40:56;4.18;;;1.92;;
12968;SDS011;6549;53.128;8.182;2023-10-09T18:44:00;5.57;;;2.22;;
12968;SDS011;6549;53.128;8.182;2023-10-09T18:47:01;5.70;;;1.85;;
12968;SDS011;6549;53.128;8.182;2023-10-09T18:50:01;2.42;;;1.38;;
12968;SDS011;6549;53.128;8.182;2023-10-09T18:53:02;4.95;;;1.67;;
12968;SDS011;6549;53.128;8.182;2023-10-09T18:56:02;2.85;;;1.50;;
12968;SDS011;6549;53.128;8.182;2023-10-09T18:59:05;5.30;;;1.55;;